createdAt,value
2018-05-11T00:00:31.801Z,7.20
2018-05-11T00:02:59.369Z,8.57
2018-05-11T00:05:26.905Z,7.97
2018-05-11T00:07:54.479Z,9.30
2018-05-11T00:10:22.029Z,7.13
2018-05-11T00:12:49.605Z,11.40
2018-05-11T00:15:17.151Z,7.80
2018-05-11T00:17:44.736Z,11.10
2018-05-11T00:20:12.279Z,6.90
2018-05-11T00:22:39.845Z,7.40
2018-05-11T00:25:07.409Z,10.53
2018-05-11T00:27:34.979Z,9.37
2018-05-11T00:30:02.525Z,9.10
2018-05-11T00:32:30.091Z,9.10
2018-05-11T00:34:57.640Z,13.30
2018-05-11T00:37:25.223Z,10.07
2018-05-11T00:39:52.764Z,9.57
2018-05-11T00:42:20.331Z,9.47
2018-05-11T00:44:47.875Z,8.97
2018-05-11T00:47:15.439Z,10.93
2018-05-11T00:49:42.988Z,16.23
2018-05-11T00:52:10.569Z,8.73
2018-05-11T00:54:38.111Z,10.17
2018-05-11T00:57:05.667Z,11.27
2018-05-11T00:59:33.208Z,10.00
2018-05-11T01:02:00.810Z,8.93
2018-05-11T01:04:28.371Z,12.83
2018-05-11T01:06:55.940Z,12.87
2018-05-11T01:09:23.495Z,11.10
2018-05-11T01:11:51.052Z,9.60
2018-05-11T01:14:18.619Z,13.13
2018-05-11T01:16:46.176Z,10.90
2018-05-11T01:19:13.746Z,11.90
2018-05-11T01:21:41.285Z,15.00
2018-05-11T01:24:08.862Z,13.37
2018-05-11T01:26:36.419Z,17.70
2018-05-11T01:29:04.003Z,14.10
2018-05-11T01:31:31.567Z,15.00
2018-05-11T01:33:59.153Z,13.40
2018-05-11T01:36:26.689Z,12.50
2018-05-11T01:38:54.276Z,10.20
2018-05-11T01:41:21.829Z,11.83
2018-05-11T01:43:49.401Z,12.80
2018-05-11T01:46:16.945Z,13.77
2018-05-11T01:48:44.518Z,9.40
2018-05-11T01:51:12.138Z,10.70
2018-05-11T01:53:39.653Z,14.07
2018-05-11T01:56:07.208Z,11.60
2018-05-11T01:58:34.774Z,10.93
2018-05-11T02:01:02.323Z,13.77
2018-05-11T02:03:29.893Z,11.80
2018-05-11T02:05:57.425Z,13.67
2018-05-11T02:08:24.991Z,15.40
2018-05-11T02:10:52.545Z,12.50
2018-05-11T02:13:20.121Z,15.80
2018-05-11T02:15:47.660Z,12.53
2018-05-11T02:18:15.223Z,17.63
2018-05-11T02:20:42.761Z,14.07
2018-05-11T02:23:10.318Z,14.40
2018-05-11T02:25:37.859Z,12.50
2018-05-11T02:28:06.191Z,13.13
2018-05-11T02:30:33.729Z,20.30
2018-05-11T02:33:01.296Z,11.63
2018-05-11T02:35:28.841Z,12.13
2018-05-11T02:37:56.391Z,10.27
2018-05-11T02:40:23.976Z,9.80
2018-05-11T02:42:51.519Z,13.53
2018-05-11T02:45:19.088Z,10.43
2018-05-11T02:47:46.649Z,11.37
2018-05-11T02:50:14.229Z,13.00
2018-05-11T02:52:41.765Z,15.90
2018-05-11T02:55:09.335Z,13.90
2018-05-11T02:57:36.886Z,12.60
2018-05-11T03:00:04.444Z,15.27
2018-05-11T03:02:31.995Z,11.97
2018-05-11T03:04:59.584Z,14.10
2018-05-11T03:07:27.141Z,11.97
2018-05-11T03:09:54.703Z,10.70
2018-05-11T03:12:22.268Z,13.50
2018-05-11T03:14:50.598Z,16.23
2018-05-11T03:17:18.144Z,13.53
2018-05-11T03:19:46.479Z,11.83
2018-05-11T03:22:14.029Z,14.17
2018-05-11T03:24:41.585Z,10.43
2018-05-11T03:27:09.128Z,13.30
2018-05-11T03:29:36.681Z,13.30
2018-05-11T03:32:04.224Z,11.90
2018-05-11T03:34:32.567Z,10.03
2018-05-11T03:37:00.111Z,10.80
2018-05-11T03:39:27.662Z,11.60
2018-05-11T03:41:55.200Z,11.67
2018-05-11T03:44:22.780Z,11.50
2018-05-11T03:46:50.333Z,12.00
2018-05-11T03:49:17.894Z,9.90
2018-05-11T03:51:45.429Z,11.47
2018-05-11T03:54:12.996Z,10.13
2018-05-11T03:56:40.542Z,11.37
2018-05-11T03:59:08.852Z,11.10
2018-05-11T04:01:48.335Z,11.10
2018-05-11T04:04:28.486Z,11.97
2018-05-11T04:07:08.798Z,13.40
2018-05-11T04:09:36.368Z,12.40
2018-05-11T04:12:03.913Z,13.73
2018-05-11T04:14:31.483Z,11.07
2018-05-11T04:16:59.024Z,16.50
2018-05-11T04:19:26.563Z,10.93
2018-05-11T04:21:54.894Z,10.40
2018-05-11T04:24:22.445Z,14.47
2018-05-11T04:26:50.009Z,12.10
2018-05-11T04:29:17.555Z,10.30
2018-05-11T04:31:45.112Z,13.47
2018-05-11T04:34:12.655Z,13.67
2018-05-11T04:36:40.214Z,10.67
2018-05-11T04:39:07.758Z,11.57
2018-05-11T04:41:36.096Z,10.27
2018-05-11T04:44:03.650Z,12.83
2018-05-11T04:46:31.208Z,10.27
2018-05-11T04:48:58.742Z,15.10
2018-05-11T04:51:26.314Z,14.33
2018-05-11T04:53:53.850Z,9.70
2018-05-11T04:56:21.422Z,13.10
2018-05-11T04:58:48.967Z,12.20
2018-05-11T05:01:16.542Z,11.87
2018-05-11T05:03:44.090Z,10.70
2018-05-11T05:06:11.664Z,12.60
2018-05-11T05:08:39.218Z,9.23
2018-05-11T05:11:06.787Z,8.93
2018-05-11T05:13:34.395Z,10.40
2018-05-11T05:16:01.994Z,12.97
2018-05-11T05:18:30.322Z,13.30
2018-05-11T05:20:57.895Z,10.87
2018-05-11T05:23:27.242Z,13.13
2018-05-11T05:25:54.816Z,9.80
2018-05-11T05:28:22.349Z,10.10
2018-05-11T05:30:49.916Z,14.03
2018-05-11T05:33:17.464Z,14.60
2018-05-11T05:35:45.043Z,13.93
2018-05-11T05:38:12.597Z,14.23
2018-05-11T05:40:40.179Z,12.50
2018-05-11T05:43:08.503Z,16.53
2018-05-11T05:45:36.835Z,15.60
2018-05-11T05:48:04.381Z,14.33
2018-05-11T05:50:31.967Z,15.47
2018-05-11T05:52:59.515Z,12.67
2018-05-11T05:55:27.069Z,13.03
2018-05-11T05:57:54.631Z,10.37
2018-05-11T06:00:22.186Z,14.00
2018-05-11T06:02:49.755Z,15.23
2018-05-11T06:05:17.306Z,10.57
2018-05-11T06:07:45.638Z,11.53
2018-05-11T06:10:13.954Z,12.87
2018-05-11T06:12:41.532Z,16.43
2018-05-11T06:15:09.095Z,11.90
2018-05-11T06:17:36.731Z,14.17
2018-05-11T06:20:04.257Z,12.80
2018-05-11T06:22:32.586Z,12.67
2018-05-11T06:25:00.146Z,12.00
2018-05-11T06:27:27.721Z,10.93
2018-05-11T06:29:56.236Z,14.27
2018-05-11T06:32:24.567Z,13.73
2018-05-11T06:34:52.129Z,12.03
2018-05-11T06:37:19.713Z,10.30
2018-05-11T06:39:48.019Z,9.90
2018-05-11T06:42:15.593Z,10.30
2018-05-11T06:44:43.142Z,12.47
2018-05-11T06:47:10.719Z,13.27
2018-05-11T06:49:38.266Z,19.07
2018-05-11T06:52:05.839Z,13.17
2018-05-11T06:54:33.548Z,11.37
2018-05-11T06:57:01.160Z,10.43
2018-05-11T06:59:28.706Z,9.33
2018-05-11T07:01:56.272Z,12.47
2018-05-11T07:04:23.813Z,9.37
2018-05-11T07:06:51.386Z,9.47
2018-05-11T07:09:18.921Z,11.93
2018-05-11T07:11:47.263Z,9.47
2018-05-11T07:14:14.798Z,11.53
2018-05-11T07:16:42.362Z,14.00
2018-05-11T07:19:09.920Z,11.37
2018-05-11T07:21:37.499Z,10.30
2018-05-11T07:24:05.040Z,14.27
2018-05-11T07:26:32.586Z,13.47
2018-05-11T07:29:00.168Z,12.27
2018-05-11T07:31:27.715Z,11.20
2018-05-11T07:33:55.273Z,9.70
2018-05-11T07:36:22.824Z,13.23
2018-05-11T07:38:50.408Z,10.57
2018-05-11T07:41:18.779Z,13.17
2018-05-11T07:43:47.062Z,12.20
2018-05-11T07:46:14.608Z,14.10
2018-05-11T07:48:42.265Z,15.43
2018-05-11T07:51:09.822Z,14.90
2018-05-11T07:53:37.400Z,16.83
2018-05-11T07:56:04.947Z,13.80
2018-05-11T07:58:32.519Z,15.90
2018-05-11T08:01:00.060Z,18.97
2018-05-11T08:03:27.631Z,20.60
2018-05-11T08:05:55.188Z,17.80
2018-05-11T08:08:22.759Z,20.80
2018-05-11T08:10:50.302Z,22.20
2018-05-11T08:13:17.880Z,23.90
2018-05-11T08:15:45.426Z,23.83
2018-05-11T08:18:13.003Z,26.13
2018-05-11T08:20:40.555Z,27.20
2018-05-11T08:23:08.145Z,21.23
2018-05-11T08:25:35.695Z,29.73
2018-05-11T08:28:03.273Z,24.43
2018-05-11T08:30:31.578Z,23.40
2018-05-11T08:32:59.154Z,29.00
2018-05-11T08:35:26.717Z,25.73
2018-05-11T08:37:54.277Z,25.50
2018-05-11T08:40:21.834Z,26.43
2018-05-11T08:42:49.404Z,31.50
2018-05-11T08:45:16.972Z,28.50
2018-05-11T08:47:44.546Z,27.07
2018-05-11T08:50:12.177Z,25.20
2018-05-11T08:52:39.756Z,25.00
2018-05-11T08:55:07.317Z,22.50
2018-05-11T08:57:34.891Z,26.10
2018-05-11T09:00:02.458Z,21.97
2018-05-11T09:02:30.017Z,26.53
2018-05-11T09:04:57.585Z,23.10
2018-05-11T09:07:25.134Z,21.50
2018-05-11T09:09:52.709Z,19.40
2018-05-11T09:12:21.028Z,19.33
2018-05-11T09:14:48.696Z,18.27
2018-05-11T09:17:16.242Z,19.37
2018-05-11T09:19:43.799Z,17.80
2018-05-11T09:22:11.345Z,19.07
2018-05-11T09:24:38.924Z,21.37
2018-05-11T09:27:06.459Z,19.90
2018-05-11T09:29:34.794Z,20.00
2018-05-11T09:32:02.343Z,22.50
2018-05-11T09:34:29.912Z,20.10
2018-05-11T09:36:57.455Z,18.67
2018-05-11T09:39:25.044Z,19.70
2018-05-11T09:41:53.207Z,23.27
2018-05-11T09:44:21.147Z,16.53
2018-05-11T09:46:48.696Z,20.43
2018-05-11T09:49:16.287Z,16.80
2018-05-11T09:51:43.847Z,18.03
2018-05-11T09:54:11.419Z,17.37
2018-05-11T09:56:38.972Z,20.07
2018-05-11T09:59:06.556Z,19.13
2018-05-11T10:01:34.881Z,22.53
2018-05-11T10:04:02.451Z,19.57
2018-05-11T10:06:30.011Z,22.50
2018-05-11T10:08:57.583Z,21.37
2018-05-11T10:11:25.142Z,19.27
2018-05-11T10:13:52.788Z,18.20
2018-05-11T10:16:21.065Z,19.67
2018-05-11T10:18:48.646Z,23.73
2018-05-11T10:21:17.704Z,22.57
2018-05-11T10:23:45.291Z,20.30
2018-05-11T10:26:12.851Z,21.17
2018-05-11T10:28:40.433Z,19.47
2018-05-11T10:31:08.000Z,19.87
2018-05-11T10:33:35.546Z,23.00
2018-05-11T10:36:03.141Z,22.13
2018-05-11T10:38:31.453Z,17.87
2018-05-11T10:40:59.027Z,19.73
2018-05-11T10:43:26.571Z,22.90
2018-05-11T10:45:54.147Z,19.03
2018-05-11T10:48:21.703Z,20.63
2018-05-11T10:50:49.261Z,18.33
2018-05-11T10:53:16.832Z,17.40
2018-05-11T10:55:44.403Z,19.00
2018-05-11T10:58:11.966Z,21.10
2018-05-11T11:00:39.543Z,20.83
2018-05-11T11:03:07.867Z,22.47
2018-05-11T11:05:35.447Z,19.43
2018-05-11T11:08:03.770Z,22.10
2018-05-11T11:10:31.357Z,21.20
2018-05-11T11:12:58.920Z,17.67
2018-05-11T11:15:26.482Z,19.00
2018-05-11T11:17:54.021Z,22.67
2018-05-11T11:20:21.586Z,21.47
2018-05-11T11:22:49.133Z,20.27
2018-05-11T11:25:17.473Z,22.53
2018-05-11T11:27:45.029Z,18.03
2018-05-11T11:30:12.611Z,18.60
2018-05-11T11:32:40.974Z,22.60
2018-05-11T11:35:08.560Z,20.20
2018-05-11T11:37:36.867Z,17.63
2018-05-11T11:40:04.445Z,15.97
2018-05-11T11:42:31.993Z,16.77
2018-05-11T11:44:59.571Z,20.50
2018-05-11T11:47:27.157Z,16.40
2018-05-11T11:49:54.731Z,20.53
2018-05-11T11:52:23.064Z,23.93
2018-05-11T11:54:50.630Z,18.70
2018-05-11T11:57:18.955Z,17.80
2018-05-11T11:59:47.300Z,17.43
2018-05-11T12:02:14.852Z,22.40
2018-05-11T12:04:42.455Z,16.20
2018-05-11T12:07:10.765Z,18.43
2018-05-11T12:09:38.325Z,22.40
2018-05-11T12:12:05.895Z,16.50
2018-05-11T12:14:33.446Z,16.83
2018-05-11T12:17:01.028Z,17.77
2018-05-11T12:19:28.562Z,25.80
2018-05-11T12:21:56.130Z,21.03
2018-05-11T12:24:23.676Z,19.97
2018-05-11T12:26:51.243Z,16.27
2018-05-11T12:29:18.815Z,16.70
2018-05-11T12:31:46.379Z,18.27
2018-05-11T12:34:14.704Z,13.40
2018-05-11T12:36:43.048Z,19.43
2018-05-11T12:39:10.598Z,15.43
2018-05-11T12:41:38.170Z,18.37
2018-05-11T12:44:05.724Z,17.30
2018-05-11T12:46:33.320Z,18.97
2018-05-11T12:49:01.627Z,18.03
2018-05-11T12:51:29.199Z,16.17
2018-05-11T12:53:56.752Z,17.70
2018-05-11T12:56:24.595Z,17.83
2018-05-11T12:58:52.189Z,19.53
2018-05-11T13:01:19.757Z,18.23
2018-05-11T13:03:48.078Z,18.13
2018-05-11T13:06:16.411Z,16.33
2018-05-11T13:08:44.726Z,17.00
2018-05-11T13:11:13.075Z,20.90
2018-05-11T13:13:40.627Z,17.73
2018-05-11T13:16:08.207Z,19.47
2018-05-11T13:18:35.749Z,21.33
2018-05-11T13:21:03.313Z,17.17
2018-05-11T13:23:30.867Z,15.47
2018-05-11T13:25:58.438Z,20.30
2018-05-11T13:28:25.995Z,17.50
2018-05-11T13:30:53.566Z,16.50
2018-05-11T13:33:21.122Z,15.53
2018-05-11T13:35:48.711Z,15.60
2018-05-11T13:38:17.036Z,18.90
2018-05-11T13:40:44.579Z,15.03
2018-05-11T13:43:12.158Z,15.33
2018-05-11T13:45:39.714Z,15.20
2018-05-11T13:48:07.287Z,13.63
2018-05-11T13:50:34.872Z,16.07
2018-05-11T13:53:03.216Z,16.63
2018-05-11T13:55:31.531Z,20.50
2018-05-11T13:57:59.871Z,18.37
2018-05-11T14:00:27.405Z,14.33
2018-05-11T14:02:54.966Z,15.60
2018-05-11T14:05:22.502Z,16.23
2018-05-11T14:07:50.066Z,13.70
2018-05-11T14:10:17.616Z,13.60
2018-05-11T14:12:45.211Z,16.80
2018-05-11T14:15:12.751Z,14.90
2018-05-11T14:17:40.316Z,12.90
2018-05-11T14:20:07.872Z,13.50
2018-05-11T14:22:35.446Z,19.90
2018-05-11T14:25:03.087Z,17.47
2018-05-11T14:27:30.579Z,16.77
2018-05-11T14:29:58.119Z,14.07
2018-05-11T14:32:25.703Z,13.53
2018-05-11T14:34:53.252Z,14.47
2018-05-11T14:37:20.810Z,14.87
2018-05-11T14:39:48.383Z,14.63
2018-05-11T14:42:16.723Z,15.10
2018-05-11T14:44:44.286Z,13.57
2018-05-11T14:47:11.873Z,17.70
2018-05-11T14:49:40.413Z,13.97
2018-05-11T14:52:07.928Z,11.93
2018-05-11T14:54:35.478Z,16.97
2018-05-11T14:57:03.816Z,13.83
2018-05-11T14:59:31.377Z,12.37
2018-05-11T15:01:58.958Z,18.83
2018-05-11T15:04:26.502Z,11.83
2018-05-11T15:06:54.059Z,13.70
2018-05-11T15:09:21.642Z,13.30
2018-05-11T15:11:49.196Z,15.27
2018-05-11T15:14:16.772Z,15.37
2018-05-11T15:16:45.100Z,13.53
2018-05-11T15:19:13.429Z,15.63
2018-05-11T15:21:41.745Z,16.97
2018-05-11T15:24:10.084Z,14.73
2018-05-11T15:26:38.413Z,14.50
2018-05-11T15:29:06.746Z,15.00
2018-05-11T15:31:34.298Z,12.57
2018-05-11T15:34:01.874Z,11.53
2018-05-11T15:36:29.422Z,18.50
2018-05-11T15:38:57.753Z,12.90
2018-05-11T15:41:25.300Z,13.97
2018-05-11T15:43:53.649Z,20.33
2018-05-11T15:46:21.205Z,14.40
2018-05-11T15:48:48.779Z,13.93
2018-05-11T15:51:16.318Z,16.93
2018-05-11T15:53:43.896Z,13.40
2018-05-11T15:56:11.439Z,11.93
2018-05-11T15:58:39.789Z,13.50
2018-05-11T16:01:07.334Z,12.60
2018-05-11T16:03:34.916Z,11.23
2018-05-11T16:06:02.464Z,10.00
2018-05-11T16:08:30.031Z,15.70
2018-05-11T16:10:57.580Z,11.07
2018-05-11T16:13:25.144Z,14.23
2018-05-11T16:15:52.692Z,12.23
2018-05-11T16:18:20.264Z,13.93
2018-05-11T16:20:47.811Z,14.17
2018-05-11T16:23:15.381Z,14.53
2018-05-11T16:25:42.927Z,15.47
2018-05-11T16:28:10.560Z,15.00
2018-05-11T16:30:38.045Z,13.00
2018-05-11T16:33:05.611Z,15.40
2018-05-11T16:35:33.145Z,17.17
2018-05-11T16:38:01.485Z,15.97
2018-05-11T16:40:29.140Z,15.30
2018-05-11T16:42:56.619Z,16.97
2018-05-11T16:45:24.162Z,15.60
2018-05-11T16:47:51.718Z,13.87
2018-05-11T16:50:19.288Z,18.03
2018-05-11T16:52:46.834Z,13.57
2018-05-11T16:55:14.408Z,13.43
2018-05-11T16:57:41.955Z,15.13
2018-05-11T17:00:10.292Z,16.70
2018-05-11T17:02:37.849Z,11.80
2018-05-11T17:05:05.426Z,14.40
2018-05-11T17:07:32.983Z,15.30
2018-05-11T17:10:00.568Z,11.50
2018-05-11T17:12:28.114Z,13.17
2018-05-11T17:14:55.696Z,11.73
2018-05-11T17:17:23.251Z,17.00
2018-05-11T17:19:50.823Z,13.30
2018-05-11T17:22:18.376Z,11.57
2018-05-11T17:24:45.955Z,13.03
2018-05-11T17:27:13.500Z,11.60
2018-05-11T17:29:41.071Z,13.07
2018-05-11T17:32:08.618Z,11.97
2018-05-11T17:34:36.183Z,13.37
2018-05-11T17:37:03.731Z,14.43
2018-05-11T17:39:31.310Z,14.77
2018-05-11T17:41:58.854Z,12.20
2018-05-11T17:44:26.419Z,12.27
2018-05-11T17:46:53.972Z,15.87
2018-05-11T17:49:21.575Z,17.20
2018-05-11T17:51:49.892Z,16.03
2018-05-11T17:54:17.458Z,15.77
2018-05-11T17:56:44.996Z,12.40
2018-05-11T17:59:12.560Z,13.97
2018-05-11T18:01:40.110Z,12.00
2018-05-11T18:04:07.676Z,11.93
2018-05-11T18:06:35.235Z,12.03
2018-05-11T18:09:02.846Z,11.40
2018-05-11T18:11:30.411Z,15.70
2018-05-11T18:13:57.955Z,17.20
2018-05-11T18:16:25.531Z,16.17
2018-05-11T18:18:53.071Z,13.57
2018-05-11T18:21:20.634Z,14.47
2018-05-11T18:23:48.180Z,15.80
2018-05-11T18:26:15.745Z,16.50
2018-05-11T18:28:43.282Z,16.40
2018-05-11T18:31:10.860Z,15.13
2018-05-11T18:33:38.410Z,13.30
2018-05-11T18:36:05.995Z,15.73
2018-05-11T18:38:33.538Z,15.10
2018-05-11T18:41:02.043Z,21.87
2018-05-11T18:43:29.591Z,15.53
2018-05-11T18:45:57.158Z,16.93
2018-05-11T18:48:24.707Z,21.40
2018-05-11T18:50:52.284Z,14.63
2018-05-11T18:53:20.170Z,18.30
2018-05-11T18:55:47.398Z,15.27
2018-05-11T18:58:14.931Z,22.30
2018-05-11T19:00:42.493Z,16.10
2018-05-11T19:03:10.040Z,16.13
2018-05-11T19:05:37.610Z,17.97
2018-05-11T19:08:05.154Z,17.73
2018-05-11T19:10:32.749Z,15.63
2018-05-11T19:13:00.295Z,17.43
2018-05-11T19:15:27.857Z,16.50
2018-05-11T19:17:55.409Z,22.10
2018-05-11T19:20:22.987Z,19.07
2018-05-11T19:22:50.535Z,18.70
2018-05-11T19:25:18.108Z,19.10
2018-05-11T19:27:45.655Z,16.80
2018-05-11T19:30:13.997Z,18.80
2018-05-11T19:32:41.549Z,17.67
2018-05-11T19:35:09.126Z,15.33
2018-05-11T19:37:36.665Z,19.70
2018-05-11T19:40:04.211Z,17.20
2018-05-11T19:42:32.557Z,16.23
2018-05-11T19:45:00.098Z,19.00
2018-05-11T19:47:27.650Z,22.50
2018-05-11T19:49:55.194Z,20.47
2018-05-11T19:52:22.768Z,20.57
2018-05-11T19:54:50.317Z,19.43
2018-05-11T19:57:17.920Z,21.30
2018-05-11T19:59:45.470Z,19.40
2018-05-11T20:02:13.039Z,20.80
2018-05-11T20:04:40.669Z,18.40
2018-05-11T20:07:08.951Z,29.40
2018-05-11T20:09:36.525Z,22.40
2018-05-11T20:12:04.876Z,23.67
2018-05-11T20:14:32.431Z,23.67
2018-05-11T20:17:00.003Z,21.67
2018-05-11T20:19:27.554Z,25.07
2018-05-11T20:21:55.119Z,21.20
2018-05-11T20:24:22.659Z,20.70
2018-05-11T20:26:50.237Z,21.53
2018-05-11T20:29:17.786Z,24.03
2018-05-11T20:31:45.358Z,20.27
2018-05-11T20:34:12.902Z,23.57
2018-05-11T20:36:40.465Z,24.10
2018-05-11T20:39:08.002Z,22.17
2018-05-11T20:41:35.616Z,26.10
2018-05-11T20:44:03.149Z,25.37
2018-05-11T20:46:30.723Z,22.80
2018-05-11T20:48:58.274Z,30.37
2018-05-11T20:51:25.828Z,22.07
2018-05-11T20:53:53.406Z,22.57
2018-05-11T20:56:20.954Z,23.63
2018-05-11T20:58:48.524Z,22.10
2018-05-11T21:01:16.846Z,23.60
2018-05-11T21:03:45.178Z,26.03
2018-05-11T21:06:12.728Z,25.30
2018-05-11T21:11:14.155Z,24.13
2018-05-11T21:13:42.485Z,28.80
2018-05-11T21:16:10.802Z,24.60
2018-05-11T21:18:39.146Z,29.50
2018-05-11T21:21:07.462Z,31.23
2018-05-11T21:23:35.805Z,26.50
2018-05-11T21:26:03.373Z,26.70
2018-05-11T21:28:30.943Z,24.80
2018-05-11T21:30:58.486Z,26.17
2018-05-11T21:33:26.087Z,23.57
2018-05-11T21:35:53.700Z,24.33
2018-05-11T21:38:21.280Z,28.03
2018-05-11T21:40:48.918Z,28.57
2018-05-11T21:43:17.191Z,34.30
2018-05-11T21:45:44.739Z,29.80
2018-05-11T21:48:12.311Z,30.60
2018-05-11T21:50:39.880Z,27.70
2018-05-11T21:53:07.454Z,30.80
2018-05-11T21:55:35.019Z,29.17
2018-05-11T21:58:03.355Z,29.40
2018-05-11T22:00:30.911Z,29.73
2018-05-11T22:02:58.486Z,32.20
2018-05-11T22:05:26.036Z,28.57
2018-05-11T22:07:53.607Z,30.93
2018-05-11T22:10:21.152Z,30.07
2018-05-11T22:12:48.723Z,27.77
2018-05-11T22:15:16.330Z,32.60
2018-05-11T22:17:44.665Z,32.63
2018-05-11T22:20:12.223Z,33.50
2018-05-11T22:22:40.546Z,33.57
2018-05-11T22:25:08.884Z,35.60
2018-05-11T22:27:37.195Z,33.20
2018-05-11T22:30:05.531Z,36.40
2018-05-11T22:32:33.075Z,32.33
2018-05-11T22:35:00.646Z,37.10
2018-05-11T22:37:29.022Z,33.60
2018-05-11T22:39:56.555Z,32.93
2018-05-11T22:42:24.111Z,35.53
2018-05-11T22:44:51.689Z,36.10
2018-05-11T22:47:19.235Z,41.73
2018-05-11T22:49:46.818Z,36.30
2018-05-11T22:52:14.367Z,36.73
2018-05-11T22:54:41.929Z,41.03
2018-05-11T22:57:09.481Z,37.67
2018-05-11T22:59:37.046Z,37.27
2018-05-11T23:02:04.608Z,38.00
2018-05-11T23:04:32.203Z,42.47
2018-05-11T23:06:59.753Z,43.30
2018-05-11T23:09:27.314Z,37.97
2018-05-11T23:11:54.849Z,41.70
2018-05-11T23:14:22.419Z,46.20
2018-05-11T23:16:49.965Z,42.10
2018-05-11T23:19:17.530Z,40.03
2018-05-11T23:21:45.067Z,39.03
2018-05-11T23:24:12.640Z,45.50
2018-05-11T23:26:40.191Z,45.13
2018-05-11T23:29:07.756Z,42.90
2018-05-11T23:31:35.307Z,38.07
2018-05-11T23:34:02.880Z,42.73
2018-05-11T23:36:30.433Z,46.43
2018-05-11T23:38:58.017Z,47.17
2018-05-11T23:41:26.338Z,45.37
2018-05-11T23:43:54.680Z,50.03
2018-05-11T23:46:22.213Z,45.10
2018-05-11T23:48:49.786Z,46.30
2018-05-11T23:51:17.322Z,40.87
2018-05-11T23:53:44.882Z,43.90
2018-05-11T23:56:12.434Z,47.60
2018-05-11T23:58:39.990Z,45.20
